RJOY weather

Yao Airport
Yao, Ōsaka Prefecture, Japan

Public forecast

Using degrees Celsius for public forecast. Weather courtesy of forecast.io.

Current aviation weather report (METAR) for Yao Airport

Retrieved 2020/08/04 10:00 UTC (2 hours ago):

RJOY 041000Z 24004KT 200V270 9999 FEW035 SCT170 BKN/// 31/20 Q1014

Closest aviation forecast (TAF) to Yao Airport

Closest forecast is Osaka International Airport, 14.0 nm (25.9 km) NW. Retrieved 2020/08/04 06:32 UTC (5 hours ago):

TAF RJOO 040507Z 0406/0512 22006KT 9999 FEW025 BECMG 0410/0412 25005KT BECMG 0500/0503 22007KT BECMG 0509/0512 25006KT